Time;durP1;ratioP1;P1;durP2;ratioP2;P2;SDS_P1;SDS_P2;PMS_P1;PMS_P2;Temp;Humidity;BMP_temperature;BMP_pressure;BME280_temperature;BME280_humidity;BME280_pressure;Samples;Min_cycle;Max_cycle;Signal;HPM_P1;HPM_P2
2023/10/09 00:01:27;;;;;;;10.23;2.90;;;;;;;;;;5069934;28;20540;-55
2023/10/09 00:03:56;;;;;;;8.67;3.77;;;;;;;;;;5070060;28;20983;-55
2023/10/09 00:06:37;;;;;;;10.10;3.50;;;;;;;;;;5069855;28;20494;-55
2023/10/09 00:09:16;;;;;;;9.77;3.00;;;;;;;;;;5070319;28;20449;-56
2023/10/09 00:11:44;;;;;;;7.30;2.13;;;;;;;;;;5069598;28;20535;-54
2023/10/09 00:14:12;;;;;;;8.63;3.00;;;;;;;;;;5070046;28;20567;-54
2023/10/09 00:16:46;;;;;;;7.73;3.90;;;;;;;;;;5069551;28;20480;-54
2023/10/09 00:19:17;;;;;;;9.90;3.30;;;;;;;;;;5069519;28;20802;-56
2023/10/09 00:21:45;;;;;;;5.60;2.80;;;;;;;;;;5069334;28;20947;-55
2023/10/09 00:24:23;;;;;;;8.20;4.10;;;;;;;;;;5069520;28;21200;-55
2023/10/09 00:26:51;;;;;;;8.97;3.40;;;;;;;;;;5069728;28;20855;-54
2023/10/09 00:29:22;;;;;;;7.13;3.00;;;;;;;;;;5069542;28;20448;-55
2023/10/09 00:31:55;;;;;;;9.20;2.30;;;;;;;;;;5067707;28;20452;-55
2023/10/09 00:34:26;;;;;;;12.50;3.60;;;;;;;;;;5069209;28;20476;-55
2023/10/09 00:36:54;;;;;;;9.43;2.87;;;;;;;;;;5069299;28;20546;-56
2023/10/09 00:42:07;;;;;;;10.10;3.70;;;;;;;;;;5061533;28;20447;-58
2023/10/09 00:44:38;;;;;;;10.40;3.17;;;;;;;;;;5069028;28;20468;-55
2023/10/09 00:47:10;;;;;;;7.57;3.37;;;;;;;;;;5069471;28;20532;-54
2023/10/09 00:49:43;;;;;;;11.93;3.80;;;;;;;;;;5069092;28;20505;-56
2023/10/09 00:52:17;;;;;;;8.20;3.53;;;;;;;;;;5069011;28;20453;-55
2023/10/09 00:54:51;;;;;;;12.37;3.23;;;;;;;;;;5069227;28;20806;-55
2023/10/09 00:57:24;;;;;;;5.97;2.77;;;;;;;;;;5069248;28;20490;-58
2023/10/09 00:59:59;;;;;;;5.63;3.17;;;;;;;;;;5069412;28;20444;-54
2023/10/09 01:02:35;;;;;;;7.73;3.60;;;;;;;;;;5068664;28;20541;-58
2023/10/09 01:05:18;;;;;;;7.93;3.47;;;;;;;;;;5064098;28;20476;-54
2023/10/09 01:07:46;;;;;;;9.43;3.17;;;;;;;;;;5048194;28;20446;-54
2023/10/09 01:10:16;;;;;;;7.00;2.77;;;;;;;;;;5048524;28;20522;-55
2023/10/09 01:12:44;;;;;;;5.90;2.40;;;;;;;;;;5048375;28;20951;-57
2023/10/09 01:15:19;;;;;;;6.57;2.90;;;;;;;;;;5048430;28;20987;-55
2023/10/09 01:17:47;;;;;;;12.13;3.37;;;;;;;;;;5068060;28;20535;-55
2023/10/09 01:20:30;;;;;;;8.10;3.00;;;;;;;;;;5068146;28;20921;-54
2023/10/09 01:22:57;;;;;;;9.87;3.40;;;;;;;;;;5061451;28;20973;-56
2023/10/09 01:25:26;;;;;;;7.33;4.03;;;;;;;;;;5068261;28;20500;-55
2023/10/09 01:27:56;;;;;;;8.90;3.10;;;;;;;;;;5068486;28;20495;-54
2023/10/09 01:30:24;;;;;;;6.07;2.63;;;;;;;;;;5068465;28;20452;-56
2023/10/09 01:32:52;;;;;;;10.03;3.60;;;;;;;;;;5068294;28;20544;-54
2023/10/09 01:35:21;;;;;;;8.00;3.27;;;;;;;;;;5068432;28;20475;-55
2023/10/09 01:37:51;;;;;;;5.90;2.90;;;;;;;;;;5068523;28;20454;-55
2023/10/09 01:40:25;;;;;;;6.87;2.97;;;;;;;;;;5068647;28;20456;-55
2023/10/09 01:42:54;;;;;;;9.93;3.40;;;;;;;;;;5068279;28;20469;-55
2023/10/09 01:45:27;;;;;;;7.60;2.67;;;;;;;;;;5066777;28;20654;-56
2023/10/09 01:47:55;;;;;;;7.30;2.90;;;;;;;;;;5068062;28;20535;-55
2023/10/09 01:50:24;;;;;;;5.67;3.07;;;;;;;;;;5068001;28;20527;-55
2023/10/09 01:52:52;;;;;;;11.30;3.30;;;;;;;;;;5067634;28;20440;-52
2023/10/09 01:55:29;;;;;;;6.33;2.40;;;;;;;;;;5068099;28;20460;-55
2023/10/09 01:58:01;;;;;;;5.70;3.67;;;;;;;;;;5068359;28;20440;-55
2023/10/09 02:00:29;;;;;;;13.50;5.30;;;;;;;;;;5067891;28;20450;-53
2023/10/09 02:02:57;;;;;;;9.87;3.07;;;;;;;;;;5067606;28;20991;-56
2023/10/09 02:05:26;;;;;;;5.50;2.43;;;;;;;;;;5067548;28;20465;-54
2023/10/09 02:07:53;;;;;;;10.07;2.80;;;;;;;;;;5067904;28;20451;-56
2023/10/09 02:10:31;;;;;;;6.80;2.53;;;;;;;;;;5067603;28;20453;-52
2023/10/09 02:13:06;;;;;;;10.17;3.40;;;;;;;;;;5067798;28;20450;-57
2023/10/09 02:15:51;;;;;;;7.40;3.10;;;;;;;;;;5067282;28;20536;-54
2023/10/09 02:18:18;;;;;;;4.43;2.67;;;;;;;;;;5067549;28;20827;-55
2023/10/09 02:20:46;;;;;;;7.07;2.70;;;;;;;;;;5067248;28;20444;-57
2023/10/09 02:23:14;;;;;;;8.77;3.03;;;;;;;;;;5067714;28;20440;-55
2023/10/09 02:25:43;;;;;;;6.97;2.43;;;;;;;;;;5067525;28;20472;-54
2023/10/09 02:28:17;;;;;;;7.83;3.70;;;;;;;;;;5067650;28;20527;-56
2023/10/09 02:30:47;;;;;;;7.83;2.90;;;;;;;;;;5067637;28;20483;-55
2023/10/09 02:33:18;;;;;;;5.30;2.50;;;;;;;;;;5067497;28;20448;-55
2023/10/09 02:35:51;;;;;;;5.97;2.60;;;;;;;;;;5067446;28;20472;-56
2023/10/09 02:38:22;;;;;;;9.53;3.73;;;;;;;;;;5069070;28;20456;-54
2023/10/09 02:41:18;;;;;;;9.37;3.17;;;;;;;;;;5067014;28;20476;-54
2023/10/09 02:43:47;;;;;;;8.00;3.03;;;;;;;;;;5067430;28;20935;-56
2023/10/09 02:46:17;;;;;;;5.97;2.47;;;;;;;;;;5067399;28;20969;-54
2023/10/09 02:48:50;;;;;;;10.43;3.33;;;;;;;;;;5067275;28;20486;-54
2023/10/09 02:51:30;;;;;;;7.40;3.13;;;;;;;;;;5067228;28;20459;-57
2023/10/09 02:53:58;;;;;;;5.37;2.47;;;;;;;;;;5067549;28;20554;-54
2023/10/09 02:56:36;;;;;;;9.00;2.60;;;;;;;;;;5067040;28;20967;-57
2023/10/09 02:59:06;;;;;;;7.57;2.87;;;;;;;;;;5067581;28;20519;-55
2023/10/09 03:01:36;;;;;;;7.43;4.13;;;;;;;;;;5066379;28;20484;-55
2023/10/09 03:04:05;;;;;;;8.37;3.30;;;;;;;;;;5067145;28;21024;-55
2023/10/09 03:06:34;;;;;;;9.13;4.10;;;;;;;;;;5067121;28;20961;-56
2023/10/09 03:09:16;;;;;;;6.07;2.97;;;;;;;;;;5067304;28;20448;-56
2023/10/09 03:11:43;;;;;;;5.30;3.10;;;;;;;;;;5068448;28;20448;-54
2023/10/09 03:14:12;;;;;;;4.67;3.47;;;;;;;;;;5068921;28;20513;-57
2023/10/09 03:16:39;;;;;;;5.13;2.80;;;;;;;;;;5059703;28;20480;-55
2023/10/09 03:19:07;;;;;;;6.00;3.00;;;;;;;;;;5069106;28;20927;-53
2023/10/09 03:21:36;;;;;;;6.83;3.77;;;;;;;;;;5066406;28;20452;-57
2023/10/09 03:24:04;;;;;;;8.20;4.60;;;;;;;;;;5067872;28;20472;-56
2023/10/09 03:26:32;;;;;;;6.10;3.40;;;;;;;;;;5062847;28;20869;-55
2023/10/09 03:29:01;;;;;;;7.33;3.20;;;;;;;;;;5063668;28;20503;-56
2023/10/09 03:31:30;;;;;;;8.30;3.40;;;;;;;;;;5060077;28;20472;-55
2023/10/09 03:33:58;;;;;;;6.63;2.83;;;;;;;;;;5069242;28;20481;-54
2023/10/09 03:36:26;;;;;;;6.63;3.00;;;;;;;;;;5071457;28;20485;-55
2023/10/09 03:38:57;;;;;;;7.80;3.77;;;;;;;;;;5069816;28;20494;-57
2023/10/09 03:41:26;;;;;;;7.63;3.57;;;;;;;;;;5071222;28;20444;-54
2023/10/09 03:43:54;;;;;;;6.50;3.57;;;;;;;;;;5072694;28;20812;-55
2023/10/09 03:46:22;;;;;;;6.93;3.30;;;;;;;;;;5065267;28;20858;-56
2023/10/09 03:48:52;;;;;;;10.17;3.23;;;;;;;;;;5067579;28;20985;-56
2023/10/09 03:51:22;;;;;;;6.97;3.83;;;;;;;;;;5071712;28;20444;-55
2023/10/09 03:53:49;;;;;;;11.83;3.60;;;;;;;;;;5072519;28;20618;-54
2023/10/09 03:56:17;;;;;;;7.77;3.60;;;;;;;;;;5072742;28;20444;-54
2023/10/09 03:58:45;;;;;;;8.00;3.43;;;;;;;;;;5072130;28;20456;-54
2023/10/09 04:01:17;;;;;;;6.17;3.47;;;;;;;;;;5071333;28;20441;-55
2023/10/09 04:03:45;;;;;;;9.63;3.50;;;;;;;;;;5070999;28;20476;-55
2023/10/09 04:06:17;;;;;;;10.77;6.37;;;;;;;;;;5071064;28;20958;-54
2023/10/09 04:08:47;;;;;;;5.70;3.20;;;;;;;;;;5070974;28;20449;-54
2023/10/09 04:11:17;;;;;;;9.60;3.23;;;;;;;;;;5071155;28;20444;-54
2023/10/09 04:13:46;;;;;;;9.90;3.40;;;;;;;;;;5070979;28;20461;-54
2023/10/09 04:18:59;;;;;;;10.50;4.10;;;;;;;;;;5070032;28;20423;-53
2023/10/09 04:21:36;;;;;;;10.40;3.43;;;;;;;;;;5069544;28;20436;-54
2023/10/09 04:24:23;;;;;;;5.67;2.77;;;;;;;;;;5069607;28;20479;-55
2023/10/09 04:26:56;;;;;;;6.07;3.17;;;;;;;;;;5069638;28;20486;-54
2023/10/09 04:29:27;;;;;;;11.47;3.10;;;;;;;;;;5069762;28;20912;-54
2023/10/09 04:31:56;;;;;;;9.30;3.80;;;;;;;;;;5069416;28;20445;-54
2023/10/09 04:34:22;;;;;;;7.83;3.00;;;;;;;;;;5069458;28;21116;-56
2023/10/09 04:36:56;;;;;;;8.00;3.57;;;;;;;;;;5069629;28;20507;-54
2023/10/09 04:39:46;;;;;;;6.07;3.30;;;;;;;;;;5069528;28;20448;-55
2023/10/09 04:47:49;;;;;;;6.37;3.13;;;;;;;;;;5068859;28;20559;-54
2023/10/09 04:53:22;;;;;;;5.53;2.33;;;;;;;;;;5062262;28;20420;-54
2023/10/09 04:55:54;;;;;;;11.90;3.37;;;;;;;;;;5069001;28;20939;-58
2023/10/09 04:58:25;;;;;;;5.97;2.60;;;;;;;;;;5068647;28;20483;-56
2023/10/09 05:01:04;;;;;;;8.70;2.67;;;;;;;;;;5067288;28;20437;-52
2023/10/09 05:03:44;;;;;;;12.20;3.93;;;;;;;;;;5063486;28;20451;-54
2023/10/09 05:09:07;;;;;;;7.33;3.03;;;;;;;;;;5063554;28;20478;-54
2023/10/09 05:11:46;;;;;;;10.87;3.47;;;;;;;;;;5062106;28;20444;-55
2023/10/09 05:14:13;;;;;;;11.20;3.37;;;;;;;;;;5067874;28;20923;-54
2023/10/09 05:16:53;;;;;;;7.33;2.90;;;;;;;;;;5071029;28;20479;-55
2023/10/09 05:19:29;;;;;;;4.60;2.83;;;;;;;;;;5064217;28;20865;-54
2023/10/09 05:21:58;;;;;;;8.00;3.60;;;;;;;;;;5059874;28;20428;-54
2023/10/09 05:24:28;;;;;;;13.27;3.97;;;;;;;;;;5081254;23;20584;-85
2023/10/09 05:27:17;;;;;;;5.83;2.13;;;;;;;;;;5023331;28;20470;-85
2023/10/09 05:29:58;;;;;;;5.10;2.53;;;;;;;;;;5023234;28;20517;-85
2023/10/09 05:32:29;;;;;;;5.80;3.10;;;;;;;;;;5030916;28;20446;-86
2023/10/09 05:35:07;;;;;;;11.73;4.97;;;;;;;;;;5031289;28;20526;-86
2023/10/09 05:37:42;;;;;;;11.10;4.00;;;;;;;;;;5030616;28;20895;-85
2023/10/09 05:40:22;;;;;;;8.83;3.67;;;;;;;;;;5032504;28;20996;-86
2023/10/09 05:43:02;;;;;;;8.00;3.90;;;;;;;;;;5029710;28;20458;-86
2023/10/09 05:51:12;;;;;;;12.90;4.67;;;;;;;;;;5046592;28;20521;-87
2023/10/09 06:04:54;;;;;;;9.60;3.43;;;;;;;;;;5028714;28;20509;-87
2023/10/09 06:07:40;;;;;;;7.77;3.90;;;;;;;;;;5030734;28;20450;-87
2023/10/09 06:10:17;;;;;;;7.67;3.70;;;;;;;;;;5026038;28;20446;-86
2023/10/09 06:13:03;;;;;;;7.77;3.80;;;;;;;;;;5031551;28;20453;-87
2023/10/09 06:15:51;;;;;;;8.43;4.13;;;;;;;;;;5029759;28;20469;-87
2023/10/09 06:18:32;;;;;;;7.57;2.90;;;;;;;;;;5031054;28;21080;-87
2023/10/09 06:24:08;;;;;;;6.60;2.90;;;;;;;;;;5032314;28;20565;-87
2023/10/09 06:26:36;;;;;;;8.07;3.50;;;;;;;;;;5051000;28;20460;-86
2023/10/09 06:29:30;;;;;;;12.13;4.40;;;;;;;;;;5053169;28;20869;-85
2023/10/09 06:32:16;;;;;;;10.67;4.80;;;;;;;;;;5048086;28;20449;-85
2023/10/09 06:34:45;;;;;;;10.57;5.10;;;;;;;;;;5053853;28;20464;-84
2023/10/09 06:37:34;;;;;;;13.50;4.20;;;;;;;;;;5054352;28;20481;-85
2023/10/09 06:42:58;;;;;;;9.03;3.53;;;;;;;;;;5011416;28;20794;-84
2023/10/09 06:45:43;;;;;;;40.77;7.27;;;;;;;;;;5036867;28;20477;-85
2023/10/09 06:48:40;;;;;;;12.97;4.00;;;;;;;;;;5046256;28;20463;-86
2023/10/09 06:51:03;;;;;;;15.03;5.20;;;;;;;;;;5049911;28;20946;-86
2023/10/09 06:53:58;;;;;;;5.97;3.90;;;;;;;;;;5050891;28;20458;-86
2023/10/09 06:56:56;;;;;;;17.10;4.43;;;;;;;;;;5050546;28;20473;-86
2023/10/09 06:59:15;;;;;;;36.93;15.67;;;;;;;;;;5046016;28;20437;-87
2023/10/09 07:01:46;;;;;;;35.10;13.73;;;;;;;;;;5050105;28;20828;-86
2023/10/09 07:04:18;;;;;;;9.77;5.20;;;;;;;;;;5050821;28;20445;-85
2023/10/09 07:06:50;;;;;;;9.00;3.90;;;;;;;;;;5052351;28;20465;-86
2023/10/09 07:09:19;;;;;;;573.20;85.47;;;;;;;;;;5056883;28;20510;-86
2023/10/09 07:12:03;;;;;;;9.83;4.80;;;;;;;;;;5056100;28;20445;-86
2023/10/09 07:14:41;;;;;;;12.27;5.50;;;;;;;;;;5056030;28;20483;-87
2023/10/09 07:17:21;;;;;;;9.63;5.10;;;;;;;;;;5055046;28;20552;-87
2023/10/09 07:22:39;;;;;;;10.17;5.00;;;;;;;;;;5062566;28;20443;-86
2023/10/09 07:25:27;;;;;;;10.27;4.23;;;;;;;;;;5071406;28;20555;-87
2023/10/09 07:27:55;;;;;;;11.93;4.70;;;;;;;;;;5050192;28;20444;-88
2023/10/09 07:30:38;;;;;;;17.30;6.53;;;;;;;;;;5055092;28;20951;-87
2023/10/09 07:33:16;;;;;;;13.23;4.97;;;;;;;;;;5048709;28;20491;-87
2023/10/09 07:35:57;;;;;;;5.67;4.07;;;;;;;;;;5054388;28;20472;-87
2023/10/09 07:38:28;;;;;;;8.00;3.47;;;;;;;;;;5054091;28;20499;-88
2023/10/09 07:40:59;;;;;;;8.70;5.10;;;;;;;;;;5047169;28;20445;-88
2023/10/09 07:43:28;;;;;;;10.77;5.50;;;;;;;;;;5054682;28;20456;-87
2023/10/09 07:48:52;;;;;;;7.63;4.97;;;;;;;;;;5053463;28;20441;-87
2023/10/09 07:51:22;;;;;;;12.57;5.07;;;;;;;;;;5054009;28;20449;-88
2023/10/09 07:53:56;;;;;;;8.40;4.50;;;;;;;;;;5053841;28;20475;-87
2023/10/09 07:56:24;;;;;;;23.40;6.53;;;;;;;;;;5053701;28;20468;-88
2023/10/09 07:58:51;;;;;;;6.70;4.10;;;;;;;;;;5053491;28;20481;-87
2023/10/09 08:01:35;;;;;;;8.47;4.60;;;;;;;;;;5053655;28;20449;-87
2023/10/09 08:04:05;;;;;;;9.70;3.80;;;;;;;;;;5047946;28;20491;-87
2023/10/09 08:06:43;;;;;;;11.67;5.10;;;;;;;;;;5053364;28;20543;-87
2023/10/09 08:09:38;;;;;;;10.37;4.30;;;;;;;;;;5053617;28;20859;-87
2023/10/09 08:12:39;;;;;;;9.30;4.57;;;;;;;;;;5053242;28;20476;-87
2023/10/09 08:17:58;;;;;;;9.63;4.67;;;;;;;;;;5016782;28;20598;-87
2023/10/09 08:20:36;;;;;;;29.77;7.97;;;;;;;;;;5053456;28;20452;-87
2023/10/09 08:23:04;;;;;;;46.00;10.80;;;;;;;;;;5053324;28;20501;-87
2023/10/09 08:25:32;;;;;;;12.10;5.63;;;;;;;;;;5052238;28;20526;-87
2023/10/09 08:28:39;;;;;;;47.50;9.07;;;;;;;;;;5053470;28;20473;-87
2023/10/09 08:31:02;;;;;;;18.83;6.70;;;;;;;;;;5052262;28;20551;-87
2023/10/09 08:36:14;;;;;;;34.63;10.37;;;;;;;;;;5054015;28;20548;-87
2023/10/09 08:38:43;;;;;;;14.63;5.77;;;;;;;;;;5052773;28;20477;-87
2023/10/09 08:41:17;;;;;;;9.70;4.03;;;;;;;;;;5051623;28;20445;-87
2023/10/09 08:43:54;;;;;;;12.83;4.00;;;;;;;;;;5052792;28;20449;-87
2023/10/09 08:46:21;;;;;;;9.50;3.50;;;;;;;;;;5045751;28;20468;-87
2023/10/09 08:48:49;;;;;;;10.10;3.73;;;;;;;;;;5050108;28;20952;-87
2023/10/09 08:51:20;;;;;;;9.80;3.67;;;;;;;;;;5048548;28;20445;-87
2023/10/09 08:53:48;;;;;;;8.03;4.53;;;;;;;;;;5050893;28;20451;-86
2023/10/09 08:56:21;;;;;;;11.03;4.53;;;;;;;;;;5056812;28;20459;-87
2023/10/09 08:58:51;;;;;;;10.90;4.20;;;;;;;;;;5069582;28;20516;-87
2023/10/09 09:01:21;;;;;;;12.10;4.37;;;;;;;;;;5053103;28;20445;-87
2023/10/09 09:03:50;;;;;;;66.47;10.77;;;;;;;;;;5052891;28;20433;-87
2023/10/09 09:06:19;;;;;;;10.47;3.67;;;;;;;;;;5052578;28;20465;-87
2023/10/09 09:08:48;;;;;;;9.63;3.77;;;;;;;;;;5052885;28;20537;-87
2023/10/09 09:11:16;;;;;;;9.73;3.90;;;;;;;;;;5052412;28;20441;-87
2023/10/09 09:13:48;;;;;;;9.30;3.47;;;;;;;;;;5052717;28;20458;-87
2023/10/09 09:16:20;;;;;;;8.00;3.53;;;;;;;;;;5052810;28;20469;-87
2023/10/09 09:19:00;;;;;;;14.60;3.33;;;;;;;;;;5044668;28;20469;-87
2023/10/09 09:21:28;;;;;;;12.20;4.20;;;;;;;;;;5052745;28;20449;-86
2023/10/09 09:24:01;;;;;;;12.20;4.73;;;;;;;;;;5053103;28;20828;-87
2023/10/09 09:26:44;;;;;;;11.00;4.00;;;;;;;;;;5052944;28;20481;-87
2023/10/09 09:29:12;;;;;;;11.23;3.97;;;;;;;;;;5052083;28;20444;-87
2023/10/09 09:31:39;;;;;;;7.00;4.20;;;;;;;;;;5052801;28;20978;-87
2023/10/09 09:34:16;;;;;;;8.93;3.70;;;;;;;;;;5053362;28;20499;-87
2023/10/09 09:36:53;;;;;;;9.63;4.20;;;;;;;;;;5053546;28;20461;-87
2023/10/09 09:39:28;;;;;;;9.33;3.70;;;;;;;;;;5052765;28;20484;-87
2023/10/09 09:42:03;;;;;;;11.63;5.07;;;;;;;;;;5046819;28;20524;-87
2023/10/09 09:44:43;;;;;;;9.70;3.30;;;;;;;;;;5053185;28;20490;-87
2023/10/09 09:47:12;;;;;;;9.60;3.00;;;;;;;;;;5054037;28;20461;-87
2023/10/09 09:49:40;;;;;;;11.20;3.77;;;;;;;;;;5053511;28;20473;-87
2023/10/09 09:52:09;;;;;;;10.93;4.17;;;;;;;;;;5052643;28;20954;-87
2023/10/09 09:54:39;;;;;;;14.00;4.97;;;;;;;;;;5053267;28;20448;-87
2023/10/09 09:57:10;;;;;;;11.77;4.30;;;;;;;;;;5053897;28;20864;-87
2023/10/09 09:59:49;;;;;;;7.43;3.50;;;;;;;;;;5054722;28;21058;-87
2023/10/09 10:02:20;;;;;;;8.80;3.63;;;;;;;;;;5053476;28;20453;-87
2023/10/09 10:04:50;;;;;;;8.40;3.90;;;;;;;;;;5053110;28;20528;-87
2023/10/09 10:07:21;;;;;;;11.33;4.30;;;;;;;;;;5054373;28;20495;-87
2023/10/09 10:09:54;;;;;;;8.77;3.77;;;;;;;;;;5055135;28;20445;-87
2023/10/09 10:12:47;;;;;;;12.93;4.40;;;;;;;;;;5054414;28;20456;-87
2023/10/09 10:15:15;;;;;;;7.37;3.40;;;;;;;;;;5045973;28;20460;-87
2023/10/09 10:17:58;;;;;;;13.40;4.00;;;;;;;;;;5053666;28;20449;-87
2023/10/09 10:20:26;;;;;;;8.03;4.00;;;;;;;;;;5053526;28;20456;-86
2023/10/09 10:23:17;;;;;;;32.27;5.20;;;;;;;;;;5046518;28;20476;-87
2023/10/09 10:25:49;;;;;;;7.17;3.40;;;;;;;;;;5054422;28;20469;-86
2023/10/09 10:28:22;;;;;;;11.67;4.90;;;;;;;;;;5055027;28;20955;-87
2023/10/09 10:30:51;;;;;;;8.23;3.97;;;;;;;;;;5063359;28;20501;-86
2023/10/09 10:33:22;;;;;;;11.83;3.43;;;;;;;;;;5058200;28;20508;-86
2023/10/09 10:35:55;;;;;;;8.70;4.00;;;;;;;;;;5045558;28;20457;-86
2023/10/09 10:38:36;;;;;;;7.90;3.33;;;;;;;;;;5045907;28;20500;-87
2023/10/09 10:41:17;;;;;;;10.23;4.40;;;;;;;;;;5047714;28;20963;-86
2023/10/09 10:46:34;;;;;;;19.80;5.00;;;;;;;;;;5042818;28;20473;-86
2023/10/09 10:49:14;;;;;;;9.10;4.23;;;;;;;;;;5048688;28;20434;-86
2023/10/09 10:51:47;;;;;;;17.73;4.47;;;;;;;;;;5058154;28;20842;-88
2023/10/09 10:54:45;;;;;;;13.77;4.40;;;;;;;;;;5055993;28;20441;-88
2023/10/09 10:57:19;;;;;;;12.93;4.60;;;;;;;;;;5051384;28;20544;-88
2023/10/09 10:59:49;;;;;;;14.10;4.70;;;;;;;;;;5056117;28;20480;-88
2023/10/09 11:02:17;;;;;;;10.87;3.80;;;;;;;;;;5056229;28;20452;-87
2023/10/09 11:04:53;;;;;;;8.40;4.10;;;;;;;;;;5055979;28;20951;-88
2023/10/09 11:07:27;;;;;;;12.83;4.00;;;;;;;;;;5072502;23;20480;-55
2023/10/09 11:10:07;;;;;;;16.70;5.23;;;;;;;;;;5065213;28;20910;-55
2023/10/09 11:13:30;;;;;;;9.50;4.23;;;;;;;;;;5071957;28;20451;-53
2023/10/09 11:15:55;;;;;;;22.03;5.40;;;;;;;;;;5053425;28;20463;-53
2023/10/09 11:18:25;;;;;;;12.70;4.50;;;;;;;;;;5052184;28;20990;-53
2023/10/09 11:21:22;;;;;;;12.13;4.73;;;;;;;;;;5052584;28;20440;-54
2023/10/09 11:26:30;;;;;;;9.70;3.70;;;;;;;;;;5091153;28;20512;-57
2023/10/09 11:29:16;;;;;;;14.27;4.40;;;;;;;;;;5093411;28;20669;-56
2023/10/09 11:31:45;;;;;;;8.60;3.40;;;;;;;;;;5093114;28;20490;-56
2023/10/09 11:34:28;;;;;;;8.80;3.37;;;;;;;;;;5090497;28;20464;-57
2023/10/09 11:36:57;;;;;;;11.70;5.70;;;;;;;;;;5073461;28;20463;-55
2023/10/09 11:39:32;;;;;;;25.83;5.90;;;;;;;;;;5072884;28;20512;-56
2023/10/09 11:42:05;;;;;;;17.90;5.00;;;;;;;;;;5072796;28;20450;-55
2023/10/09 11:44:45;;;;;;;10.40;3.67;;;;;;;;;;5072966;28;20746;-54
2023/10/09 11:47:23;;;;;;;9.27;3.40;;;;;;;;;;5072874;28;20433;-55
2023/10/09 11:50:10;;;;;;;7.03;4.50;;;;;;;;;;5073122;28;20447;-56
2023/10/09 11:52:38;;;;;;;10.17;4.50;;;;;;;;;;5071676;28;20861;-57
2023/10/09 11:55:06;;;;;;;11.27;4.40;;;;;;;;;;5072619;28;20468;-56
2023/10/09 11:57:35;;;;;;;10.73;4.10;;;;;;;;;;5072316;28;20463;-59
2023/10/09 12:00:24;;;;;;;10.17;4.80;;;;;;;;;;5073031;28;20511;-55
2023/10/09 12:02:52;;;;;;;14.90;4.93;;;;;;;;;;5072619;28;20440;-55
2023/10/09 12:05:19;;;;;;;10.93;3.77;;;;;;;;;;5072709;28;20494;-59
2023/10/09 12:07:46;;;;;;;9.07;3.47;;;;;;;;;;5072278;28;20441;-59
2023/10/09 12:10:24;;;;;;;7.57;4.20;;;;;;;;;;5072455;28;20441;-59
2023/10/09 12:12:51;;;;;;;15.17;5.50;;;;;;;;;;5072447;28;20479;-57
2023/10/09 12:15:20;;;;;;;14.83;5.93;;;;;;;;;;5072615;28;20465;-59
2023/10/09 12:17:49;;;;;;;15.80;4.67;;;;;;;;;;5071767;28;20942;-57
2023/10/09 12:20:30;;;;;;;10.87;3.93;;;;;;;;;;5072256;28;20472;-58
2023/10/09 12:22:58;;;;;;;8.70;4.40;;;;;;;;;;5072431;28;20444;-58
2023/10/09 12:25:25;;;;;;;9.37;4.47;;;;;;;;;;5072061;28;20914;-57
2023/10/09 12:27:57;;;;;;;12.17;4.63;;;;;;;;;;5072143;28;20502;-59
2023/10/09 12:30:27;;;;;;;11.87;4.53;;;;;;;;;;5071895;28;20444;-57
2023/10/09 12:32:57;;;;;;;9.93;4.47;;;;;;;;;;5071010;28;21104;-58
2023/10/09 12:35:24;;;;;;;12.67;4.53;;;;;;;;;;5070706;28;20476;-58
2023/10/09 12:37:52;;;;;;;11.63;4.70;;;;;;;;;;5070967;28;20553;-56
2023/10/09 12:40:24;;;;;;;35.60;7.57;;;;;;;;;;5070664;28;20874;-56
2023/10/09 12:42:52;;;;;;;13.93;4.17;;;;;;;;;;5070862;28;20528;-56
2023/10/09 12:45:25;;;;;;;8.60;3.70;;;;;;;;;;5071501;28;20464;-57
2023/10/09 12:47:58;;;;;;;9.43;3.47;;;;;;;;;;5071895;28;20478;-58
2023/10/09 12:50:28;;;;;;;8.57;3.90;;;;;;;;;;5071858;28;20519;-58
2023/10/09 12:53:01;;;;;;;6.60;3.87;;;;;;;;;;5064746;28;20494;-58
2023/10/09 12:55:32;;;;;;;9.80;3.67;;;;;;;;;;5071585;28;20502;-56
2023/10/09 12:58:06;;;;;;;8.47;3.57;;;;;;;;;;5071346;28;20559;-56
2023/10/09 13:00:36;;;;;;;8.30;4.30;;;;;;;;;;5071161;28;21010;-57
2023/10/09 13:03:16;;;;;;;13.00;4.40;;;;;;;;;;5071384;28;20458;-56
2023/10/09 13:05:51;;;;;;;10.27;4.63;;;;;;;;;;5071197;28;20468;-59
2023/10/09 13:08:21;;;;;;;10.10;4.23;;;;;;;;;;5070793;28;20509;-55
2023/10/09 13:10:55;;;;;;;15.23;5.07;;;;;;;;;;5064520;28;20951;-54
2023/10/09 13:13:22;;;;;;;9.50;4.13;;;;;;;;;;5059459;28;21005;-55
2023/10/09 13:15:49;;;;;;;11.10;3.87;;;;;;;;;;5066356;28;20460;-53
2023/10/09 13:18:18;;;;;;;8.67;4.10;;;;;;;;;;5067691;28;20449;-53
2023/10/09 13:20:45;;;;;;;10.00;4.37;;;;;;;;;;5071104;28;20502;-53
2023/10/09 13:23:17;;;;;;;9.50;4.63;;;;;;;;;;5071131;28;20468;-53
2023/10/09 13:25:44;;;;;;;11.60;3.93;;;;;;;;;;5064691;28;20506;-55
2023/10/09 13:28:11;;;;;;;11.20;4.17;;;;;;;;;;5064795;28;20445;-56
2023/10/09 13:30:49;;;;;;;9.03;4.07;;;;;;;;;;5064920;28;20932;-54
2023/10/09 13:33:21;;;;;;;6.20;3.60;;;;;;;;;;5061556;28;20535;-53
2023/10/09 13:35:50;;;;;;;13.77;4.83;;;;;;;;;;5070715;28;20469;-53
2023/10/09 13:38:18;;;;;;;10.27;4.53;;;;;;;;;;5070787;28;20443;-53
2023/10/09 13:40:45;;;;;;;11.50;4.20;;;;;;;;;;5070430;28;20538;-54
2023/10/09 13:43:16;;;;;;;13.90;4.53;;;;;;;;;;5070557;28;20466;-54
2023/10/09 13:45:49;;;;;;;10.47;4.27;;;;;;;;;;5070583;28;20475;-53
2023/10/09 13:48:20;;;;;;;11.50;4.10;;;;;;;;;;5070781;28;20449;-53
2023/10/09 13:50:48;;;;;;;12.47;5.03;;;;;;;;;;5070840;28;20432;-54
2023/10/09 13:53:17;;;;;;;9.60;4.00;;;;;;;;;;5070882;28;20436;-53
2023/10/09 13:55:44;;;;;;;7.00;3.73;;;;;;;;;;5070207;28;20460;-55
2023/10/09 13:58:20;;;;;;;8.20;4.17;;;;;;;;;;5071099;28;20432;-53
2023/10/09 14:00:49;;;;;;;7.33;4.30;;;;;;;;;;5069738;28;20622;-55
2023/10/09 14:03:19;;;;;;;7.17;3.83;;;;;;;;;;5070369;28;20994;-53
2023/10/09 14:05:54;;;;;;;8.30;3.77;;;;;;;;;;5069461;28;20466;-56
2023/10/09 14:08:23;;;;;;;10.50;4.33;;;;;;;;;;5070384;28;20443;-57
2023/10/09 14:10:51;;;;;;;14.13;3.67;;;;;;;;;;5070494;28;20464;-53
2023/10/09 14:13:25;;;;;;;11.33;4.37;;;;;;;;;;5070013;28;20445;-54
2023/10/09 14:15:54;;;;;;;11.20;4.13;;;;;;;;;;5069657;28;20490;-56
2023/10/09 14:18:21;;;;;;;7.87;3.70;;;;;;;;;;5070645;28;20482;-58
2023/10/09 14:20:49;;;;;;;12.83;4.63;;;;;;;;;;5069921;28;20616;-55
2023/10/09 14:23:20;;;;;;;11.10;3.97;;;;;;;;;;5070221;28;20476;-55
2023/10/09 14:25:49;;;;;;;11.33;4.20;;;;;;;;;;5069930;28;20468;-54
2023/10/09 14:28:18;;;;;;;10.60;4.43;;;;;;;;;;5069852;28;20494;-56
2023/10/09 14:30:50;;;;;;;13.00;3.90;;;;;;;;;;5070210;28;20437;-53
2023/10/09 14:33:22;;;;;;;8.00;2.93;;;;;;;;;;5070158;28;20468;-54
2023/10/09 14:35:52;;;;;;;8.47;3.70;;;;;;;;;;5069371;28;20545;-55
2023/10/09 14:38:26;;;;;;;11.67;3.87;;;;;;;;;;5070329;28;20485;-54
2023/10/09 14:40:59;;;;;;;8.27;3.57;;;;;;;;;;5069858;28;20514;-55
2023/10/09 14:43:28;;;;;;;12.50;4.77;;;;;;;;;;5069969;28;20672;-53
2023/10/09 14:45:57;;;;;;;12.30;4.73;;;;;;;;;;5069870;28;20464;-54
2023/10/09 14:48:26;;;;;;;9.93;4.10;;;;;;;;;;5069940;28;20519;-54
2023/10/09 14:50:54;;;;;;;16.13;4.53;;;;;;;;;;5070254;28;20440;-53
2023/10/09 14:53:26;;;;;;;7.10;3.63;;;;;;;;;;5069776;28;20923;-52
2023/10/09 14:55:59;;;;;;;9.40;4.20;;;;;;;;;;5070095;28;20472;-54
2023/10/09 14:58:28;;;;;;;9.37;4.00;;;;;;;;;;5069764;28;20451;-53
2023/10/09 15:00:56;;;;;;;9.10;5.07;;;;;;;;;;5069522;28;20990;-51
2023/10/09 15:03:23;;;;;;;11.77;4.03;;;;;;;;;;5069796;28;20873;-53
2023/10/09 15:05:51;;;;;;;12.47;4.37;;;;;;;;;;5068960;28;20465;-53
2023/10/09 15:08:18;;;;;;;13.53;4.00;;;;;;;;;;5069999;28;20452;-55
2023/10/09 15:10:47;;;;;;;9.77;5.43;;;;;;;;;;5069396;28;20866;-53
2023/10/09 15:13:17;;;;;;;8.43;3.70;;;;;;;;;;5069675;28;20440;-53
2023/10/09 15:15:45;;;;;;;13.17;4.43;;;;;;;;;;5068824;28;20904;-55
2023/10/09 15:18:18;;;;;;;10.40;4.03;;;;;;;;;;5069591;28;20479;-56
2023/10/09 15:20:45;;;;;;;6.67;3.50;;;;;;;;;;5068664;28;20612;-55
2023/10/09 15:23:13;;;;;;;7.93;3.73;;;;;;;;;;5069283;28;20445;-53
2023/10/09 15:25:42;;;;;;;12.83;3.97;;;;;;;;;;5069770;28;20556;-55
2023/10/09 15:28:10;;;;;;;9.47;4.30;;;;;;;;;;5071520;28;20448;-54
2023/10/09 15:30:39;;;;;;;6.60;3.30;;;;;;;;;;5072711;28;20444;-54
2023/10/09 15:33:07;;;;;;;9.80;3.43;;;;;;;;;;5071982;28;20531;-53
2023/10/09 15:35:34;;;;;;;11.33;4.10;;;;;;;;;;5071509;28;20496;-53
2023/10/09 15:38:03;;;;;;;9.20;3.70;;;;;;;;;;5071910;28;20459;-53
2023/10/09 15:40:34;;;;;;;12.90;4.50;;;;;;;;;;5063537;28;20508;-53
2023/10/09 15:43:01;;;;;;;8.57;3.77;;;;;;;;;;5065608;28;20473;-55
2023/10/09 15:45:29;;;;;;;9.80;4.27;;;;;;;;;;5061249;28;20456;-54
2023/10/09 15:47:59;;;;;;;8.20;4.27;;;;;;;;;;5063021;28;20464;-53
2023/10/09 15:50:26;;;;;;;9.70;4.17;;;;;;;;;;5062129;28;20437;-54
2023/10/09 15:52:54;;;;;;;10.63;4.30;;;;;;;;;;5060762;28;20434;-53
2023/10/09 15:55:24;;;;;;;11.00;5.90;;;;;;;;;;5061260;28;20539;-53
2023/10/09 15:57:54;;;;;;;17.10;5.20;;;;;;;;;;5059556;28;20504;-53
2023/10/09 16:00:28;;;;;;;11.37;5.10;;;;;;;;;;5060898;28;20485;-53
2023/10/09 16:02:55;;;;;;;8.60;4.53;;;;;;;;;;5059444;28;20461;-53
2023/10/09 16:05:25;;;;;;;11.93;4.30;;;;;;;;;;5062434;28;20991;-56
2023/10/09 16:07:53;;;;;;;12.83;4.43;;;;;;;;;;5061804;28;20440;-55